Time;durP1;ratioP1;P1;durP2;ratioP2;P2;SDS_P1;SDS_P2;PMS_P1;PMS_P2;Temp;Humidity;BMP_temperature;BMP_pressure;BME280_temperature;BME280_humidity;BME280_pressure;Samples;Min_cycle;Max_cycle;Signal;HPM_P1;HPM_P2
2022/07/25 00:00:49;;;;;;;11.60;5.70;;;;;;;;;;5129566;27;20052;-74
2022/07/25 00:03:19;;;;;;;8.80;5.60;;;;;;;;;;5127989;27;20406;-72
2022/07/25 00:05:49;;;;;;;10.70;5.82;;;;;;;;;;5129762;27;20043;-71
2022/07/25 00:08:19;;;;;;;8.50;5.72;;;;;;;;;;5129161;27;20055;-72
2022/07/25 00:10:48;;;;;;;14.07;6.15;;;;;;;;;;5128932;27;20414;-73
2022/07/25 00:13:18;;;;;;;11.40;6.45;;;;;;;;;;5127222;27;20055;-74
2022/07/25 00:15:48;;;;;;;10.90;6.00;;;;;;;;;;5129636;27;20525;-74
2022/07/25 00:18:18;;;;;;;10.55;6.05;;;;;;;;;;5128842;27;20058;-72
2022/07/25 00:20:48;;;;;;;10.77;6.78;;;;;;;;;;5127614;27;20517;-74
2022/07/25 00:23:18;;;;;;;12.30;7.60;;;;;;;;;;5128579;27;20061;-74
2022/07/25 00:25:47;;;;;;;11.10;6.93;;;;;;;;;;5129523;27;20668;-74
2022/07/25 00:28:17;;;;;;;8.63;6.05;;;;;;;;;;5126751;27;20109;-72
2022/07/25 00:30:48;;;;;;;11.60;7.35;;;;;;;;;;5128765;27;20725;-74
2022/07/25 00:33:19;;;;;;;13.88;7.75;;;;;;;;;;5129048;27;20047;-74
2022/07/25 00:35:48;;;;;;;15.18;7.00;;;;;;;;;;5128315;27;20059;-74
2022/07/25 00:38:18;;;;;;;13.88;7.68;;;;;;;;;;5128090;27;20066;-74
2022/07/25 00:40:50;;;;;;;13.13;6.75;;;;;;;;;;5128255;27;20043;-73
2022/07/25 00:43:23;;;;;;;10.45;6.97;;;;;;;;;;5127740;27;20510;-73
2022/07/25 00:45:53;;;;;;;10.80;6.18;;;;;;;;;;5128489;27;20059;-73
2022/07/25 00:48:25;;;;;;;12.93;6.80;;;;;;;;;;5128003;27;20050;-73
2022/07/25 00:50:56;;;;;;;12.15;6.38;;;;;;;;;;5128526;27;20050;-73
2022/07/25 00:53:26;;;;;;;12.88;6.15;;;;;;;;;;5128301;27;20047;-73
2022/07/25 00:55:56;;;;;;;11.70;7.13;;;;;;;;;;5126919;27;20051;-73
2022/07/25 00:58:26;;;;;;;10.45;6.72;;;;;;;;;;5128103;27;20047;-73
2022/07/25 01:00:56;;;;;;;11.15;6.13;;;;;;;;;;5128537;27;20054;-74
2022/07/25 01:03:27;;;;;;;11.45;6.32;;;;;;;;;;5128293;27;20058;-73
2022/07/25 01:05:57;;;;;;;11.95;6.32;;;;;;;;;;5128388;27;20055;-73
2022/07/25 01:08:27;;;;;;;10.48;6.88;;;;;;;;;;5127659;27;20494;-73
2022/07/25 01:10:57;;;;;;;14.13;6.65;;;;;;;;;;5127924;27;20407;-72
2022/07/25 01:13:27;;;;;;;10.52;6.60;;;;;;;;;;5127913;27;20058;-74
2022/07/25 01:15:57;;;;;;;15.50;8.00;;;;;;;;;;5128030;27;20043;-73
2022/07/25 01:18:27;;;;;;;12.65;7.78;;;;;;;;;;5127900;27;20051;-73
2022/07/25 01:20:57;;;;;;;13.25;7.28;;;;;;;;;;5127862;27;20043;-73
2022/07/25 01:23:27;;;;;;;12.80;6.47;;;;;;;;;;5127988;27;20402;-73
2022/07/25 01:25:57;;;;;;;11.07;7.25;;;;;;;;;;5127926;27;20046;-72
2022/07/25 01:28:27;;;;;;;11.40;7.22;;;;;;;;;;5128133;27;20054;-72
2022/07/25 01:30:58;;;;;;;11.73;5.97;;;;;;;;;;5128193;27;20043;-73
2022/07/25 01:33:27;;;;;;;12.00;6.97;;;;;;;;;;5128366;27;20050;-73
2022/07/25 01:35:57;;;;;;;12.43;6.32;;;;;;;;;;5128100;27;20054;-73
2022/07/25 01:38:27;;;;;;;17.98;6.60;;;;;;;;;;5124991;27;20055;-73
2022/07/25 01:40:57;;;;;;;12.32;6.35;;;;;;;;;;5127893;27;20505;-73
2022/07/25 01:43:27;;;;;;;10.75;6.88;;;;;;;;;;5127940;27;20058;-73
2022/07/25 01:45:57;;;;;;;13.43;7.32;;;;;;;;;;5127809;27;20403;-73
2022/07/25 01:48:26;;;;;;;12.60;6.45;;;;;;;;;;5127950;28;20046;-73
2022/07/25 01:50:57;;;;;;;13.32;6.97;;;;;;;;;;5127588;28;20043;-73
2022/07/25 01:53:27;;;;;;;14.90;7.57;;;;;;;;;;5127295;28;20051;-73
2022/07/25 01:55:59;;;;;;;11.50;7.20;;;;;;;;;;5128518;28;20505;-73
2022/07/25 01:58:31;;;;;;;10.45;6.60;;;;;;;;;;5127447;28;20055;-73
2022/07/25 02:01:01;;;;;;;9.52;6.45;;;;;;;;;;5127732;28;20051;-73
2022/07/25 02:03:31;;;;;;;10.88;6.93;;;;;;;;;;5127720;28;20051;-73
2022/07/25 02:06:07;;;;;;;14.57;6.43;;;;;;;;;;5127409;28;20058;-73
2022/07/25 02:08:37;;;;;;;11.63;6.60;;;;;;;;;;5127354;28;20044;-73
2022/07/25 02:11:07;;;;;;;15.05;7.40;;;;;;;;;;5131172;27;20050;-73
2022/07/25 02:13:37;;;;;;;13.90;6.70;;;;;;;;;;5135815;27;20387;-73
2022/07/25 02:16:07;;;;;;;13.30;6.68;;;;;;;;;;5153842;27;20023;-73
2022/07/25 02:18:37;;;;;;;15.82;7.47;;;;;;;;;;5130564;27;20051;-73
2022/07/25 02:21:08;;;;;;;12.25;6.65;;;;;;;;;;5132387;27;20043;-73
2022/07/25 02:23:43;;;;;;;15.40;7.43;;;;;;;;;;5135725;27;20058;-73
2022/07/25 02:26:14;;;;;;;17.73;7.20;;;;;;;;;;5156019;27;20049;-73
2022/07/25 02:28:44;;;;;;;17.02;6.72;;;;;;;;;;5156755;27;20031;-73
2022/07/25 02:31:13;;;;;;;9.95;5.93;;;;;;;;;;5156544;27;20044;-73
2022/07/25 02:33:45;;;;;;;11.93;6.47;;;;;;;;;;5157378;27;20023;-73
2022/07/25 02:36:15;;;;;;;16.60;6.55;;;;;;;;;;5155911;27;20031;-74
2022/07/25 02:38:45;;;;;;;9.60;5.75;;;;;;;;;;5133130;27;20047;-74
2022/07/25 02:41:15;;;;;;;12.35;6.13;;;;;;;;;;5132307;27;20043;-73
2022/07/25 02:43:44;;;;;;;12.65;6.28;;;;;;;;;;5131693;27;20490;-73
2022/07/25 02:46:14;;;;;;;7.72;6.15;;;;;;;;;;5132429;27;20474;-74
2022/07/25 02:48:44;;;;;;;9.35;5.63;;;;;;;;;;5132888;27;20051;-73
2022/07/25 02:51:14;;;;;;;10.70;5.95;;;;;;;;;;5130496;27;20502;-73
2022/07/25 02:53:45;;;;;;;9.57;5.97;;;;;;;;;;5131029;27;20051;-73
2022/07/25 02:56:26;;;;;;;11.05;6.43;;;;;;;;;;5131082;27;20051;-73
2022/07/25 02:59:00;;;;;;;12.75;5.93;;;;;;;;;;5131349;27;20050;-73
2022/07/25 03:01:29;;;;;;;13.75;6.75;;;;;;;;;;5129562;27;20047;-73
2022/07/25 03:04:00;;;;;;;8.85;5.72;;;;;;;;;;5129938;27;20058;-73
2022/07/25 03:06:30;;;;;;;9.90;5.30;;;;;;;;;;5130830;27;20109;-73
2022/07/25 03:09:00;;;;;;;12.65;5.90;;;;;;;;;;5129038;27;20426;-73
2022/07/25 03:11:30;;;;;;;13.75;6.28;;;;;;;;;;5130412;27;20047;-73
2022/07/25 03:14:00;;;;;;;14.50;5.57;;;;;;;;;;5129521;27;20058;-73
2022/07/25 03:16:30;;;;;;;14.32;6.47;;;;;;;;;;5130685;27;20055;-74
2022/07/25 03:19:00;;;;;;;11.77;5.03;;;;;;;;;;5129757;27;20489;-74
2022/07/25 03:21:31;;;;;;;11.60;5.40;;;;;;;;;;5129445;27;20050;-71
2022/07/25 03:24:01;;;;;;;12.35;6.63;;;;;;;;;;5130907;27;20069;-73
2022/07/25 03:26:30;;;;;;;10.82;5.60;;;;;;;;;;5130913;27;20066;-73
2022/07/25 03:29:00;;;;;;;9.15;5.97;;;;;;;;;;5130205;27;20047;-73
2022/07/25 03:31:30;;;;;;;11.85;6.07;;;;;;;;;;5128514;27;20054;-72
2022/07/25 03:34:00;;;;;;;8.38;6.28;;;;;;;;;;5130066;27;20062;-73
2022/07/25 03:36:30;;;;;;;11.93;5.65;;;;;;;;;;5129828;27;20047;-73
2022/07/25 03:39:00;;;;;;;13.15;5.97;;;;;;;;;;5129531;27;20051;-73
2022/07/25 03:41:33;;;;;;;13.10;6.07;;;;;;;;;;5129767;27;20036;-73
2022/07/25 03:44:03;;;;;;;9.02;5.80;;;;;;;;;;5130063;27;20046;-72
2022/07/25 03:46:34;;;;;;;11.45;6.55;;;;;;;;;;5129091;27;20047;-73
2022/07/25 03:49:04;;;;;;;10.25;6.03;;;;;;;;;;5128754;27;20059;-72
2022/07/25 03:51:34;;;;;;;9.75;5.65;;;;;;;;;;5129676;27;20050;-73
2022/07/25 03:54:05;;;;;;;13.60;6.32;;;;;;;;;;5129179;27;21109;-73
2022/07/25 03:56:38;;;;;;;10.80;6.18;;;;;;;;;;5129805;27;20039;-73
2022/07/25 03:59:14;;;;;;;11.40;5.60;;;;;;;;;;5128930;27;20047;-73
2022/07/25 04:01:48;;;;;;;9.93;6.22;;;;;;;;;;5129844;27;20035;-73
2022/07/25 04:04:18;;;;;;;17.30;5.97;;;;;;;;;;5129290;27;20518;-73
2022/07/25 04:06:48;;;;;;;11.48;5.22;;;;;;;;;;5129811;27;20039;-73
2022/07/25 04:09:18;;;;;;;11.15;6.60;;;;;;;;;;5129685;27;20043;-73
2022/07/25 04:11:48;;;;;;;11.07;6.07;;;;;;;;;;5129870;27;20050;-73
2022/07/25 04:14:19;;;;;;;13.77;6.90;;;;;;;;;;5128109;27;20047;-73
2022/07/25 04:16:48;;;;;;;15.02;7.25;;;;;;;;;;5129313;27;20039;-73
2022/07/25 04:19:18;;;;;;;9.15;5.88;;;;;;;;;;5127301;27;20046;-73
2022/07/25 04:21:48;;;;;;;13.98;6.10;;;;;;;;;;5129320;27;20051;-73
2022/07/25 04:24:18;;;;;;;10.25;6.47;;;;;;;;;;5129213;27;20051;-73
2022/07/25 04:26:48;;;;;;;8.48;5.70;;;;;;;;;;5127188;27;20054;-73
2022/07/25 04:29:18;;;;;;;13.70;5.70;;;;;;;;;;5128697;27;20385;-73
2022/07/25 04:31:48;;;;;;;13.13;6.15;;;;;;;;;;5128036;27;20414;-73
2022/07/25 04:34:17;;;;;;;12.10;6.13;;;;;;;;;;5127165;27;20430;-73
2022/07/25 04:36:47;;;;;;;11.30;6.30;;;;;;;;;;5129103;27;20490;-73
2022/07/25 04:39:17;;;;;;;13.85;6.78;;;;;;;;;;5127244;27;20502;-73
2022/07/25 04:41:47;;;;;;;13.80;7.20;;;;;;;;;;5128443;27;20062;-73
2022/07/25 04:44:17;;;;;;;9.45;5.95;;;;;;;;;;5129585;27;20050;-73
2022/07/25 04:46:47;;;;;;;12.30;6.70;;;;;;;;;;5128534;27;20047;-73
2022/07/25 04:49:16;;;;;;;10.55;5.95;;;;;;;;;;5128423;27;20047;-73
2022/07/25 04:51:48;;;;;;;14.23;7.28;;;;;;;;;;5126394;27;20054;-73
2022/07/25 04:54:18;;;;;;;9.98;6.43;;;;;;;;;;5126617;27;20043;-73
2022/07/25 04:56:48;;;;;;;9.02;6.18;;;;;;;;;;5128877;27;20044;-73
2022/07/25 04:59:18;;;;;;;9.55;6.35;;;;;;;;;;5128403;27;20051;-73
2022/07/25 05:01:47;;;;;;;10.57;6.72;;;;;;;;;;5128505;27;20047;-72
2022/07/25 05:04:18;;;;;;;11.88;6.88;;;;;;;;;;5128068;27;20031;-72
2022/07/25 05:06:48;;;;;;;9.10;6.32;;;;;;;;;;5126883;27;20066;-72
2022/07/25 05:09:18;;;;;;;13.98;7.63;;;;;;;;;;5128139;27;20434;-72
2022/07/25 05:11:48;;;;;;;15.90;7.07;;;;;;;;;;5126769;27;20425;-72
2022/07/25 05:14:24;;;;;;;;;;;;;;;;;;5128796;27;20049;-72
2022/07/25 05:16:53;;;;;;;11.70;7.50;;;;;;;;;;5127787;27;19976;-72
2022/07/25 05:19:24;;;;;;;14.63;7.47;;;;;;;;;;5128001;27;20577;-73
2022/07/25 05:21:54;;;;;;;13.50;6.55;;;;;;;;;;5127898;27;20058;-73
2022/07/25 05:24:24;;;;;;;13.77;6.25;;;;;;;;;;5127940;27;20043;-72
2022/07/25 05:26:54;;;;;;;10.48;7.13;;;;;;;;;;5128427;27;20043;-72
2022/07/25 05:29:24;;;;;;;9.85;6.88;;;;;;;;;;5127568;27;20035;-72
2022/07/25 05:31:54;;;;;;;13.32;8.13;;;;;;;;;;5126191;27;20047;-72
2022/07/25 05:34:24;;;;;;;12.30;6.95;;;;;;;;;;5128135;27;20043;-72
2022/07/25 05:36:54;;;;;;;8.10;6.35;;;;;;;;;;5126353;27;20054;-72
2022/07/25 05:39:23;;;;;;;12.45;6.93;;;;;;;;;;5128041;27;20524;-72
2022/07/25 05:41:53;;;;;;;14.38;7.93;;;;;;;;;;5127313;27;20058;-72
2022/07/25 05:44:23;;;;;;;14.40;7.95;;;;;;;;;;5124597;27;20055;-72
2022/07/25 05:46:53;;;;;;;13.27;7.00;;;;;;;;;;5127635;27;20065;-72
2022/07/25 05:49:23;;;;;;;11.93;7.47;;;;;;;;;;5127571;27;20043;-72
2022/07/25 05:51:53;;;;;;;11.73;7.57;;;;;;;;;;5127746;28;20054;-73
2022/07/25 05:54:23;;;;;;;9.95;6.63;;;;;;;;;;5128019;28;20062;-72
2022/07/25 05:56:55;;;;;;;13.20;7.82;;;;;;;;;;5127460;28;20051;-72
2022/07/25 05:59:25;;;;;;;12.85;7.18;;;;;;;;;;5127517;28;20047;-72
2022/07/25 06:01:55;;;;;;;11.35;6.97;;;;;;;;;;5127751;28;20047;-72
2022/07/25 06:04:25;;;;;;;17.98;6.78;;;;;;;;;;5127044;28;20494;-72
2022/07/25 06:06:55;;;;;;;14.35;7.35;;;;;;;;;;5127044;28;20418;-72
2022/07/25 06:09:25;;;;;;;14.68;8.60;;;;;;;;;;5125473;28;20060;-72
2022/07/25 06:11:56;;;;;;;13.93;8.05;;;;;;;;;;5127662;28;20047;-72
2022/07/25 06:14:29;;;;;;;13.73;8.23;;;;;;;;;;5127667;28;20043;-72
2022/07/25 06:16:59;;;;;;;20.35;7.68;;;;;;;;;;5127179;28;20498;-73
2022/07/25 06:19:29;;;;;;;31.70;5.55;;;;;;;;;;5127571;28;20058;-72
2022/07/25 06:21:59;;;;;;;9.05;6.60;;;;;;;;;;5127625;28;20043;-72
2022/07/25 06:24:28;;;;;;;9.20;6.78;;;;;;;;;;5127509;28;20047;-72
2022/07/25 06:26:58;;;;;;;11.25;7.15;;;;;;;;;;5127366;28;20055;-72
2022/07/25 06:29:29;;;;;;;18.42;7.80;;;;;;;;;;5126888;28;20050;-72
2022/07/25 06:31:59;;;;;;;16.15;6.95;;;;;;;;;;5127125;28;20055;-72
2022/07/25 06:34:29;;;;;;;9.65;7.00;;;;;;;;;;5127690;28;20069;-72
2022/07/25 06:36:59;;;;;;;10.63;6.82;;;;;;;;;;5126937;28;20043;-72
2022/07/25 06:39:29;;;;;;;15.32;8.23;;;;;;;;;;5126731;28;20051;-72
2022/07/25 06:42:00;;;;;;;12.73;7.43;;;;;;;;;;5126850;28;20506;-72
2022/07/25 06:44:34;;;;;;;14.15;7.95;;;;;;;;;;5127224;28;20055;-72
2022/07/25 06:47:09;;;;;;;14.30;7.47;;;;;;;;;;5127011;28;20051;-72
2022/07/25 06:49:41;;;;;;;12.50;6.43;;;;;;;;;;5127530;28;20047;-72
2022/07/25 06:52:11;;;;;;;10.57;6.53;;;;;;;;;;5126892;28;20046;-72
2022/07/25 06:54:41;;;;;;;9.23;6.45;;;;;;;;;;5126782;28;20395;-72
2022/07/25 06:57:10;;;;;;;14.38;6.78;;;;;;;;;;5128716;27;20042;-72
2022/07/25 06:59:40;;;;;;;11.68;7.22;;;;;;;;;;5131121;27;20051;-72
2022/07/25 07:02:11;;;;;;;12.75;7.43;;;;;;;;;;5130521;27;20050;-72
2022/07/25 07:04:41;;;;;;;12.73;8.23;;;;;;;;;;5130901;27;20047;-72
2022/07/25 07:07:11;;;;;;;14.00;7.93;;;;;;;;;;5130503;27;20510;-72
2022/07/25 07:09:43;;;;;;;9.43;7.00;;;;;;;;;;5130075;27;20051;-72
2022/07/25 07:12:13;;;;;;;12.60;6.15;;;;;;;;;;5130740;27;20051;-72
2022/07/25 07:14:44;;;;;;;12.07;6.78;;;;;;;;;;5130499;27;20046;-72
2022/07/25 07:17:16;;;;;;;10.98;6.57;;;;;;;;;;5129487;27;20043;-72
2022/07/25 07:19:45;;;;;;;12.23;7.45;;;;;;;;;;5130142;27;20073;-72
2022/07/25 07:22:15;;;;;;;12.95;7.53;;;;;;;;;;5130356;27;20450;-72
2022/07/25 07:24:45;;;;;;;11.23;7.25;;;;;;;;;;5130419;27;20047;-72
2022/07/25 07:27:15;;;;;;;11.13;7.25;;;;;;;;;;5130248;27;20051;-72
2022/07/25 07:29:47;;;;;;;17.48;8.30;;;;;;;;;;5129827;27;20043;-72
2022/07/25 07:32:18;;;;;;;12.07;7.45;;;;;;;;;;5129944;27;20051;-72
2022/07/25 07:34:48;;;;;;;14.20;7.20;;;;;;;;;;5130058;27;20051;-72
2022/07/25 07:37:18;;;;;;;14.68;6.72;;;;;;;;;;5130145;27;20051;-72
2022/07/25 07:39:48;;;;;;;10.45;6.82;;;;;;;;;;5130843;27;20528;-72
2022/07/25 07:42:18;;;;;;;9.25;6.05;;;;;;;;;;5128573;27;20051;-72
2022/07/25 07:44:48;;;;;;;9.68;7.45;;;;;;;;;;5129768;27;20047;-72
2022/07/25 07:47:20;;;;;;;12.25;7.63;;;;;;;;;;5129893;27;20549;-72
2022/07/25 07:49:50;;;;;;;13.32;5.95;;;;;;;;;;5129680;27;20588;-72
2022/07/25 07:52:20;;;;;;;8.85;5.93;;;;;;;;;;5128092;27;20062;-72
2022/07/25 07:57:38;;;;;;;15.18;7.07;;;;;;;;;;5129793;27;20043;-72
2022/07/25 08:00:09;;;;;;;10.18;6.63;;;;;;;;;;5129399;27;20051;-72
2022/07/25 08:02:44;;;;;;;;;;;;;;;;;;5130316;27;20054;-72
2022/07/25 08:05:44;;;;;;;13.75;7.90;;;;;;;;;;5129850;27;19946;-72
2022/07/25 08:08:15;;;;;;;10.00;6.13;;;;;;;;;;5117637;27;20055;-72
2022/07/25 08:10:47;;;;;;;11.98;8.10;;;;;;;;;;5129291;27;20054;-72
2022/07/25 08:13:23;;;;;;;10.57;6.85;;;;;;;;;;5127555;27;20062;-73
2022/07/25 08:15:59;;;;;;;14.13;7.22;;;;;;;;;;5128922;27;20051;-72
2022/07/25 08:18:33;;;;;;;17.92;8.95;;;;;;;;;;5128497;27;20043;-72
2022/07/25 08:21:07;;;;;;;14.40;8.93;;;;;;;;;;5129385;27;20043;-72
2022/07/25 08:23:38;;;;;;;19.40;8.85;;;;;;;;;;5129370;27;20042;-72
2022/07/25 08:26:09;;;;;;;14.20;8.45;;;;;;;;;;5129275;27;20380;-72
2022/07/25 08:28:41;;;;;;;16.88;9.55;;;;;;;;;;5128805;27;20054;-72
2022/07/25 08:31:12;;;;;;;16.42;8.45;;;;;;;;;;5129314;27;20058;-72
2022/07/25 08:33:42;;;;;;;13.40;9.20;;;;;;;;;;5129043;27;20036;-72
2022/07/25 08:36:12;;;;;;;17.90;9.65;;;;;;;;;;5129415;27;20050;-72
2022/07/25 08:38:41;;;;;;;18.13;7.68;;;;;;;;;;5128601;27;20043;-72
2022/07/25 08:41:11;;;;;;;14.77;8.38;;;;;;;;;;5128332;27;20058;-72
2022/07/25 08:43:43;;;;;;;21.25;7.28;;;;;;;;;;5129134;27;20047;-72
2022/07/25 08:46:15;;;;;;;16.98;6.10;;;;;;;;;;5128530;27;20054;-72
2022/07/25 08:48:46;;;;;;;91.38;8.70;;;;;;;;;;5128995;27;20043;-72
2022/07/25 08:51:18;;;;;;;31.02;7.18;;;;;;;;;;5129210;27;20066;-73
2022/07/25 08:53:49;;;;;;;9.18;6.70;;;;;;;;;;5127007;27;20058;-72
2022/07/25 08:56:19;;;;;;;9.23;6.07;;;;;;;;;;5128824;27;20050;-72
2022/07/25 08:58:50;;;;;;;11.73;6.50;;;;;;;;;;5128239;27;20051;-72
2022/07/25 09:01:19;;;;;;;12.10;7.40;;;;;;;;;;5129032;27;20047;-72
2022/07/25 09:03:49;;;;;;;12.68;7.10;;;;;;;;;;5128476;27;20047;-72
2022/07/25 09:06:21;;;;;;;10.50;6.05;;;;;;;;;;5127658;27;20078;-72
2022/07/25 09:08:57;;;;;;;34.50;6.70;;;;;;;;;;5127872;27;20494;-72
2022/07/25 09:11:31;;;;;;;8.10;4.90;;;;;;;;;;5128093;27;20510;-72
2022/07/25 09:14:05;;;;;;;10.07;5.68;;;;;;;;;;5128461;27;20050;-72
2022/07/25 09:16:40;;;;;;;8.00;5.40;;;;;;;;;;5128454;27;20061;-72
2022/07/25 09:19:14;;;;;;;7.50;5.05;;;;;;;;;;5127796;27;20490;-72
2022/07/25 09:21:56;;;;;;;8.85;5.97;;;;;;;;;;5128108;27;20503;-73
2022/07/25 09:24:28;;;;;;;19.98;4.82;;;;;;;;;;5128600;27;20513;-72
2022/07/25 09:27:01;;;;;;;9.32;4.85;;;;;;;;;;5127994;27;20497;-72
2022/07/25 09:29:33;;;;;;;9.15;5.55;;;;;;;;;;5127768;27;20047;-73
2022/07/25 09:32:22;;;;;;;6.53;5.10;;;;;;;;;;5128089;27;20402;-72
2022/07/25 09:34:53;;;;;;;9.52;5.38;;;;;;;;;;5127805;27;20054;-72
2022/07/25 09:37:25;;;;;;;11.35;6.20;;;;;;;;;;5126221;27;20051;-72
2022/07/25 09:39:56;;;;;;;9.48;5.75;;;;;;;;;;5126586;27;20062;-73
2022/07/25 09:42:36;;;;;;;13.55;5.97;;;;;;;;;;5126268;27;20070;-72
2022/07/25 09:45:11;;;;;;;11.27;6.63;;;;;;;;;;5127151;27;20050;-72
2022/07/25 09:47:54;;;;;;;12.77;6.85;;;;;;;;;;5127310;27;20043;-72
2022/07/25 09:50:27;;;;;;;17.98;7.07;;;;;;;;;;5128341;27;20058;-72
2022/07/25 09:53:01;;;;;;;13.25;7.35;;;;;;;;;;5127802;28;20042;-72
2022/07/25 09:55:32;;;;;;;12.55;6.95;;;;;;;;;;5127884;28;20047;-72
2022/07/25 09:58:02;;;;;;;11.90;5.75;;;;;;;;;;5126412;28;20069;-74
2022/07/25 10:00:32;;;;;;;10.43;6.45;;;;;;;;;;5125789;28;20058;-73
2022/07/25 10:03:43;;;;;;;11.40;6.55;;;;;;;;;;5127714;28;20053;-73
2022/07/25 10:06:38;;;;;;;8.55;5.78;;;;;;;;;;5128059;28;20039;-72
2022/07/25 10:09:12;;;;;;;7.78;5.57;;;;;;;;;;5127554;28;20054;-73
2022/07/25 10:12:10;;;;;;;8.68;4.85;;;;;;;;;;5127330;28;20054;-72
2022/07/25 10:14:41;;;;;;;7.07;4.85;;;;;;;;;;5127478;28;20036;-73
2022/07/25 10:17:20;;;;;;;87.45;7.63;;;;;;;;;;5127501;28;20062;-70
2022/07/25 10:19:50;;;;;;;15.43;7.18;;;;;;;;;;5127431;28;20043;-71
2022/07/25 10:22:36;;;;;;;11.15;5.97;;;;;;;;;;5127456;28;20054;-72
2022/07/25 10:25:24;;;;;;;10.18;6.07;;;;;;;;;;5125552;28;20047;-72
2022/07/25 10:28:08;;;;;;;12.13;5.93;;;;;;;;;;5127108;28;20050;-72
2022/07/25 10:30:39;;;;;;;12.02;7.55;;;;;;;;;;5128601;27;20039;-72
2022/07/25 10:33:27;;;;;;;15.45;6.95;;;;;;;;;;5131029;27;20066;-72
2022/07/25 10:36:06;;;;;;;12.52;7.47;;;;;;;;;;5129481;27;20059;-73
2022/07/25 10:38:40;;;;;;;11.43;7.43;;;;;;;;;;5129650;27;20055;-72
2022/07/25 10:41:12;;;;;;;11.45;6.75;;;;;;;;;;5130742;27;20043;-72
2022/07/25 10:43:45;;;;;;;10.05;6.50;;;;;;;;;;5130647;27;20050;-71
2022/07/25 10:46:22;;;;;;;14.65;7.70;;;;;;;;;;5130954;27;20512;-72
2022/07/25 10:49:00;;;;;;;10.70;6.35;;;;;;;;;;5131249;27;20043;-72
2022/07/25 10:51:35;;;;;;;10.80;6.85;;;;;;;;;;5130731;27;20047;-73
2022/07/25 10:54:15;;;;;;;12.27;6.55;;;;;;;;;;5130482;27;20046;-72
2022/07/25 10:56:53;;;;;;;14.27;7.00;;;;;;;;;;5129989;27;20047;-73
2022/07/25 10:59:34;;;;;;;10.70;5.72;;;;;;;;;;5128437;27;20043;-73
2022/07/25 11:02:08;;;;;;;9.90;5.68;;;;;;;;;;5129760;27;20051;-73
2022/07/25 11:04:38;;;;;;;10.13;5.40;;;;;;;;;;5130735;27;20050;-72
2022/07/25 11:07:12;;;;;;;12.27;5.85;;;;;;;;;;5130581;27;20047;-72
2022/07/25 11:09:43;;;;;;;8.80;5.95;;;;;;;;;;5130923;27;20046;-74
2022/07/25 11:12:15;;;;;;;8.00;5.35;;;;;;;;;;5129370;27;20055;-72
2022/07/25 11:14:46;;;;;;;9.07;5.35;;;;;;;;;;5129353;27;20043;-73
2022/07/25 11:17:21;;;;;;;11.98;6.10;;;;;;;;;;5130532;27;20054;-72
2022/07/25 11:19:57;;;;;;;8.75;6.32;;;;;;;;;;5130634;27;20043;-72
2022/07/25 11:22:28;;;;;;;;;;;;;;;;;;5131314;27;20047;-72
2022/07/25 11:24:59;;;;;;;8.40;5.40;;;;;;;;;;5130500;27;20301;-73
2022/07/25 11:27:31;;;;;;;8.80;6.30;;;;;;;;;;5129743;27;20525;-74
2022/07/25 11:30:14;;;;;;;9.93;6.63;;;;;;;;;;5129117;27;20062;-71
2022/07/25 11:32:48;;;;;;;10.38;6.47;;;;;;;;;;5128060;27;20051;-72
2022/07/25 11:35:25;;;;;;;16.85;6.70;;;;;;;;;;5130188;27;20050;-72
2022/07/25 11:37:58;;;;;;;15.13;6.85;;;;;;;;;;5129690;27;20039;-73
2022/07/25 11:40:31;;;;;;;16.45;6.65;;;;;;;;;;5130282;27;20047;-72
2022/07/25 11:43:02;;;;;;;18.02;7.45;;;;;;;;;;5129381;27;20054;-72
2022/07/25 11:45:35;;;;;;;12.95;6.15;;;;;;;;;;5129741;27;20054;-75
2022/07/25 11:48:10;;;;;;;10.77;6.88;;;;;;;;;;5130661;27;20046;-73
2022/07/25 11:50:43;;;;;;;8.18;6.13;;;;;;;;;;5132975;27;20047;-72
2022/07/25 11:53:17;;;;;;;17.50;11.32;;;;;;;;;;5153973;27;20037;-73
2022/07/25 11:55:47;;;;;;;14.82;5.38;;;;;;;;;;5155459;27;20039;-72
2022/07/25 11:58:17;;;;;;;15.65;9.32;;;;;;;;;;5155629;27;20039;-73
2022/07/25 12:00:49;;;;;;;20.98;8.93;;;;;;;;;;5155743;27;20051;-73
2022/07/25 12:03:19;;;;;;;9.68;5.07;;;;;;;;;;5155084;27;20016;-73
2022/07/25 12:05:49;;;;;;;14.98;5.63;;;;;;;;;;5128768;27;20058;-72
2022/07/25 12:08:24;;;;;;;15.77;5.97;;;;;;;;;;5129732;27;20078;-73
2022/07/25 12:10:54;;;;;;;11.05;5.00;;;;;;;;;;5128969;27;20051;-71
2022/07/25 12:13:29;;;;;;;11.25;5.40;;;;;;;;;;5134001;27;20050;-73
2022/07/25 12:15:59;;;;;;;7.95;4.70;;;;;;;;;;5131926;27;20043;-72
2022/07/25 12:18:29;;;;;;;12.70;4.90;;;;;;;;;;5129414;27;20050;-72
2022/07/25 12:20:58;;;;;;;9.77;4.82;;;;;;;;;;5130215;27;20047;-74
2022/07/25 12:23:28;;;;;;;10.77;5.70;;;;;;;;;;5131063;27;20058;-72
2022/07/25 12:25:58;;;;;;;10.50;5.07;;;;;;;;;;5128862;27;20051;-72
2022/07/25 12:28:29;;;;;;;18.63;5.28;;;;;;;;;;5128023;27;20039;-72
2022/07/25 12:31:00;;;;;;;14.60;5.05;;;;;;;;;;5129435;27;20055;-73
2022/07/25 12:33:31;;;;;;;18.02;5.05;;;;;;;;;;5128926;27;20047;-72
2022/07/25 12:36:02;;;;;;;13.88;4.88;;;;;;;;;;5129457;27;20054;-72
2022/07/25 12:38:36;;;;;;;16.50;5.40;;;;;;;;;;5127003;27;20731;-74
2022/07/25 12:41:06;;;;;;;7.32;3.90;;;;;;;;;;5129731;27;20047;-73
2022/07/25 12:43:36;;;;;;;20.20;8.23;;;;;;;;;;5129042;27;20062;-73
2022/07/25 12:46:06;;;;;;;11.65;4.47;;;;;;;;;;5128521;27;20055;-73
2022/07/25 12:48:36;;;;;;;16.33;5.97;;;;;;;;;;5129389;27;20055;-73
2022/07/25 12:51:06;;;;;;;11.18;6.28;;;;;;;;;;5127145;27;20070;-73
2022/07/25 12:53:36;;;;;;;13.93;6.43;;;;;;;;;;5127975;27;20062;-72
2022/07/25 12:56:10;;;;;;;11.15;6.32;;;;;;;;;;5128339;27;20047;-71
2022/07/25 12:58:40;;;;;;;9.48;5.82;;;;;;;;;;5127905;27;20066;-72
2022/07/25 13:01:12;;;;;;;13.95;6.25;;;;;;;;;;5126216;27;20128;-71
2022/07/25 13:03:42;;;;;;;10.18;6.90;;;;;;;;;;5128322;27;20050;-72
2022/07/25 13:06:12;;;;;;;14.55;6.00;;;;;;;;;;5127987;27;20047;-72
2022/07/25 13:08:42;;;;;;;14.85;5.90;;;;;;;;;;5128852;27;20039;-72
2022/07/25 13:11:12;;;;;;;14.35;5.60;;;;;;;;;;5128413;27;20047;-72
2022/07/25 13:13:42;;;;;;;10.63;5.53;;;;;;;;;;5128693;27;20057;-73
2022/07/25 13:16:12;;;;;;;13.15;5.88;;;;;;;;;;5127952;27;20494;-72
2022/07/25 13:18:43;;;;;;;6.88;5.40;;;;;;;;;;5127482;27;20043;-72
2022/07/25 13:21:13;;;;;;;13.45;5.88;;;;;;;;;;5127892;27;20062;-75
2022/07/25 13:23:43;;;;;;;12.57;6.25;;;;;;;;;;5127872;27;20498;-74
2022/07/25 13:26:13;;;;;;;19.05;6.30;;;;;;;;;;5126113;27;20055;-72
2022/07/25 13:28:43;;;;;;;10.13;4.85;;;;;;;;;;5127851;27;20414;-73
2022/07/25 13:31:13;;;;;;;26.60;6.65;;;;;;;;;;5127791;27;20784;-72
2022/07/25 13:33:43;;;;;;;17.15;7.18;;;;;;;;;;5127955;27;20042;-74
2022/07/25 13:36:14;;;;;;;9.77;5.60;;;;;;;;;;5128139;27;20050;-73
2022/07/25 13:38:45;;;;;;;12.80;6.20;;;;;;;;;;5127964;27;20047;-73
2022/07/25 13:41:15;;;;;;;10.40;5.85;;;;;;;;;;5127672;27;20051;-73
2022/07/25 13:43:48;;;;;;;10.05;5.82;;;;;;;;;;5125672;27;20593;-73
2022/07/25 13:46:18;;;;;;;11.57;6.25;;;;;;;;;;5127712;27;20511;-74
2022/07/25 13:48:47;;;;;;;12.25;5.93;;;;;;;;;;5127597;27;20047;-74
2022/07/25 13:51:17;;;;;;;10.88;5.60;;;;;;;;;;5127689;27;20053;-75
2022/07/25 13:53:48;;;;;;;6.95;5.10;;;;;;;;;;5127347;28;20043;-75
2022/07/25 13:56:18;;;;;;;8.13;4.15;;;;;;;;;;5127492;28;20407;-74
2022/07/25 13:58:48;;;;;;;8.50;4.80;;;;;;;;;;5126211;28;20054;-75
2022/07/25 14:01:18;;;;;;;6.88;4.60;;;;;;;;;;5126044;28;20061;-74
2022/07/25 14:03:48;;;;;;;9.75;4.22;;;;;;;;;;5127999;28;20055;-74
2022/07/25 14:06:18;;;;;;;8.25;3.92;;;;;;;;;;5129926;27;20058;-74
2022/07/25 14:08:49;;;;;;;9.02;4.50;;;;;;;;;;5132196;27;20047;-74
2022/07/25 14:11:19;;;;;;;6.18;2.95;;;;;;;;;;5131833;27;20410;-74
2022/07/25 14:13:50;;;;;;;4.97;3.60;;;;;;;;;;5131718;27;20059;-75
2022/07/25 14:16:21;;;;;;;5.32;3.33;;;;;;;;;;5131421;27;20039;-74
2022/07/25 14:18:51;;;;;;;11.45;3.75;;;;;;;;;;5129614;27;20055;-75
2022/07/25 14:21:21;;;;;;;6.53;4.35;;;;;;;;;;5131775;27;20409;-75
2022/07/25 14:23:50;;;;;;;9.07;4.13;;;;;;;;;;5131493;27;20057;-74
2022/07/25 14:26:21;;;;;;;7.10;4.05;;;;;;;;;;5131668;27;20050;-74
2022/07/25 14:28:51;;;;;;;9.00;3.60;;;;;;;;;;5131140;27;20058;-74
2022/07/25 14:31:21;;;;;;;7.75;4.00;;;;;;;;;;5131880;27;20039;-74
2022/07/25 14:33:52;;;;;;;8.18;3.83;;;;;;;;;;5131912;27;20042;-74
2022/07/25 14:36:22;;;;;;;6.18;4.03;;;;;;;;;;5130849;27;20043;-74
2022/07/25 14:38:52;;;;;;;7.05;4.30;;;;;;;;;;5129626;27;20051;-74
2022/07/25 14:41:22;;;;;;;4.07;3.33;;;;;;;;;;5129101;27;20051;-74
2022/07/25 14:43:52;;;;;;;6.18;4.22;;;;;;;;;;5130962;27;20510;-74
2022/07/25 14:46:22;;;;;;;9.00;3.92;;;;;;;;;;5130708;27;20421;-74
2022/07/25 14:48:52;;;;;;;7.13;4.63;;;;;;;;;;5131225;27;20516;-75
2022/07/25 14:51:23;;;;;;;8.65;4.68;;;;;;;;;;5130830;27;20490;-75
2022/07/25 14:53:52;;;;;;;9.57;4.68;;;;;;;;;;5129291;27;20050;-75
2022/07/25 14:56:22;;;;;;;7.25;4.68;;;;;;;;;;5131270;27;20043;-75
2022/07/25 14:58:52;;;;;;;8.23;4.63;;;;;;;;;;5131228;27;20051;-75
2022/07/25 15:01:24;;;;;;;9.43;4.13;;;;;;;;;;5131234;27;20414;-74